createdAt,value
2022-11-28T00:01:28.368Z,19.10
2022-11-28T00:03:55.225Z,19.40
2022-11-28T00:06:22.149Z,19.75
2022-11-28T00:08:49.239Z,19.85
2022-11-28T00:11:17.541Z,20.65
2022-11-28T00:13:46.736Z,20.00
2022-11-28T00:16:16.742Z,19.45
2022-11-28T00:21:13.092Z,19.17
2022-11-28T00:23:40.549Z,19.92
2022-11-28T00:26:19.812Z,19.48
2022-11-28T00:28:47.052Z,19.38
2022-11-28T00:31:15.770Z,19.25
2022-11-28T00:33:42.888Z,18.35
2022-11-28T00:36:10.152Z,18.33
2022-11-28T00:38:36.971Z,18.42
2022-11-28T00:41:08.958Z,19.85
2022-11-28T00:43:36.260Z,18.48
2022-11-28T00:46:04.071Z,19.73
2022-11-28T00:48:32.633Z,18.98
2022-11-28T00:51:26.970Z,18.90
2022-11-28T00:53:55.604Z,18.80
2022-11-28T00:56:28.432Z,18.17
2022-11-28T00:58:55.243Z,18.58
2022-11-28T01:01:34.929Z,19.60
2022-11-28T01:04:05.134Z,19.75
2022-11-28T01:06:41.095Z,18.38
2022-11-28T01:09:12.385Z,18.75
2022-11-28T01:11:41.425Z,18.27
2022-11-28T01:14:10.064Z,19.35
2022-11-28T01:16:37.878Z,20.02
2022-11-28T01:19:05.286Z,17.92
2022-11-28T01:21:32.126Z,18.60
2022-11-28T01:23:58.866Z,18.65
2022-11-28T01:26:28.591Z,18.85
2022-11-28T01:28:55.916Z,18.13
2022-11-28T01:31:25.105Z,18.95
2022-11-28T01:33:52.865Z,19.73
2022-11-28T01:36:20.449Z,19.30
2022-11-28T01:38:47.911Z,20.35
2022-11-28T01:41:17.446Z,21.02
2022-11-28T01:44:06.381Z,21.67
2022-11-28T01:46:34.070Z,19.63
2022-11-28T01:49:21.624Z,21.20
2022-11-28T01:51:52.696Z,22.52
2022-11-28T01:54:22.795Z,21.10
2022-11-28T02:01:48.420Z,22.88
2022-11-28T02:04:15.265Z,23.63
2022-11-28T02:06:42.748Z,24.10
2022-11-28T02:09:14.884Z,25.73
2022-11-28T02:12:06.506Z,24.63
2022-11-28T02:14:48.521Z,23.38
2022-11-28T02:17:48.495Z,25.73
2022-11-28T02:20:46.371Z,25.15
2022-11-28T02:23:26.555Z,24.85
2022-11-28T02:26:11.962Z,25.27
2022-11-28T02:28:54.059Z,26.83
2022-11-28T02:31:35.985Z,25.85
2022-11-28T02:34:28.507Z,27.58
2022-11-28T02:37:20.772Z,24.65
2022-11-28T02:40:01.159Z,26.23
2022-11-28T02:42:46.469Z,25.75
2022-11-28T02:45:54.071Z,25.63
2022-11-28T02:48:23.470Z,25.63
2022-11-28T02:51:01.225Z,27.38
2022-11-28T02:53:30.985Z,26.80
2022-11-28T02:55:59.105Z,26.85
2022-11-28T02:58:25.882Z,25.95
2022-11-28T03:00:53.450Z,26.08
2022-11-28T03:03:28.580Z,24.85
2022-11-28T03:06:04.057Z,25.48
2022-11-28T03:08:42.620Z,24.52
2022-11-28T03:11:27.668Z,24.55
2022-11-28T03:14:22.766Z,25.90
2022-11-28T03:17:01.988Z,25.30
2022-11-28T03:19:35.873Z,26.30
2022-11-28T03:22:33.392Z,27.20
2022-11-28T03:25:10.890Z,26.25
2022-11-28T03:27:58.780Z,26.45
2022-11-28T03:30:48.426Z,26.42
2022-11-28T03:33:17.850Z,27.08
2022-11-28T03:35:49.830Z,27.30
2022-11-28T03:38:22.264Z,26.10
2022-11-28T03:40:54.208Z,27.00
2022-11-28T03:43:27.519Z,26.73
2022-11-28T03:45:58.713Z,27.10
2022-11-28T03:48:36.066Z,28.10
2022-11-28T03:51:10.755Z,27.88
2022-11-28T03:53:51.039Z,27.25
2022-11-28T03:56:34.229Z,25.45
2022-11-28T03:59:11.168Z,26.02
2022-11-28T04:02:18.942Z,26.60
2022-11-28T04:04:52.566Z,26.63
2022-11-28T04:07:25.312Z,26.80
2022-11-28T04:10:01.299Z,28.75
2022-11-28T04:12:46.299Z,27.23
2022-11-28T04:15:41.643Z,27.35
2022-11-28T04:18:17.567Z,26.38
2022-11-28T04:21:16.490Z,26.58
2022-11-28T04:23:46.497Z,26.50
2022-11-28T04:26:42.208Z,26.77
2022-11-28T04:29:14.025Z,26.45
2022-11-28T04:31:44.659Z,28.02
2022-11-28T04:34:16.461Z,27.63
2022-11-28T04:36:45.293Z,26.98
2022-11-28T04:39:19.126Z,27.73
2022-11-28T04:41:52.377Z,28.58
2022-11-28T04:44:25.597Z,27.13
2022-11-28T04:46:55.434Z,25.80
2022-11-28T04:49:23.742Z,26.40
2022-11-28T04:52:02.675Z,27.42
2022-11-28T04:54:37.394Z,26.30
2022-11-28T04:57:12.996Z,26.80
2022-11-28T04:59:41.973Z,25.98
2022-11-28T05:02:09.773Z,25.77
2022-11-28T05:04:37.449Z,25.73
2022-11-28T05:07:08.513Z,26.65
2022-11-28T05:09:35.364Z,27.20
2022-11-28T05:12:02.075Z,24.83
2022-11-28T05:14:28.961Z,28.02
2022-11-28T05:16:55.642Z,27.45
2022-11-28T05:19:22.730Z,28.13
2022-11-28T05:21:49.443Z,25.98
2022-11-28T05:24:16.075Z,27.17
2022-11-28T05:26:43.339Z,28.88
2022-11-28T05:29:10.524Z,34.95
2022-11-28T05:31:37.935Z,32.35
2022-11-28T05:34:05.026Z,28.90
2022-11-28T05:36:31.823Z,26.10
2022-11-28T05:38:58.494Z,24.45
2022-11-28T05:41:28.245Z,23.75
2022-11-28T05:43:56.651Z,25.92
2022-11-28T05:46:23.585Z,24.95
2022-11-28T05:48:50.305Z,27.33
2022-11-28T05:51:17.632Z,28.20
2022-11-28T05:53:44.587Z,28.85
2022-11-28T05:56:14.651Z,26.65
2022-11-28T06:01:20.318Z,27.55
2022-11-28T06:03:47.601Z,26.95
2022-11-28T06:06:19.607Z,27.80
2022-11-28T06:08:48.904Z,27.73
2022-11-28T06:11:16.575Z,27.10
2022-11-28T06:13:44.218Z,26.70
2022-11-28T06:16:12.585Z,27.15
2022-11-28T06:18:40.027Z,27.65
2022-11-28T06:21:08.814Z,25.88
2022-11-28T06:23:35.742Z,25.00
2022-11-28T06:26:10.334Z,26.10
2022-11-28T06:28:37.617Z,24.55
2022-11-28T06:31:05.437Z,25.00
2022-11-28T06:33:32.166Z,25.67
2022-11-28T06:36:01.205Z,23.52
2022-11-28T06:38:28.994Z,23.20
2022-11-28T06:41:02.738Z,23.88
2022-11-28T06:43:30.212Z,24.80
2022-11-28T06:45:57.027Z,23.90
2022-11-28T06:48:24.289Z,22.83
2022-11-28T06:50:51.187Z,21.25
2022-11-28T06:53:18.356Z,20.45
2022-11-28T06:55:46.000Z,20.27
2022-11-28T06:58:12.845Z,19.05
2022-11-28T07:00:39.601Z,19.05
2022-11-28T07:03:06.239Z,19.65
2022-11-28T07:05:33.146Z,19.38
2022-11-28T07:08:00.661Z,18.63
2022-11-28T07:10:28.892Z,18.17
2022-11-28T07:13:03.910Z,17.23
2022-11-28T07:15:32.051Z,18.52
2022-11-28T07:17:58.709Z,17.55
2022-11-28T07:20:25.462Z,17.25
2022-11-28T07:22:52.125Z,17.23
2022-11-28T07:25:18.925Z,17.70
2022-11-28T07:27:45.563Z,16.85
2022-11-28T07:30:12.534Z,16.20
2022-11-28T07:32:40.838Z,16.75
2022-11-28T07:35:09.002Z,15.75
2022-11-28T07:37:36.543Z,16.02
2022-11-28T07:40:04.219Z,16.75
2022-11-28T07:42:30.967Z,16.95
2022-11-28T07:45:04.284Z,15.07
2022-11-28T07:47:31.425Z,17.02
2022-11-28T07:49:58.131Z,16.58
2022-11-28T07:52:24.905Z,15.38
2022-11-28T07:54:51.577Z,16.33
2022-11-28T07:57:18.284Z,16.20
2022-11-28T07:59:45.292Z,15.30
2022-11-28T08:02:12.980Z,15.98
2022-11-28T08:04:44.021Z,16.17
2022-11-28T08:07:14.537Z,15.43
2022-11-28T08:09:41.355Z,15.90
2022-11-28T08:12:08.263Z,15.80
2022-11-28T08:14:35.066Z,15.90
2022-11-28T08:17:01.958Z,14.20
2022-11-28T08:19:33.790Z,15.30
2022-11-28T08:22:01.873Z,15.07
2022-11-28T08:24:28.478Z,14.52
2022-11-28T08:26:55.145Z,14.15
2022-11-28T08:29:21.783Z,14.10
2022-11-28T08:31:48.550Z,15.10
2022-11-28T08:34:15.257Z,13.68
2022-11-28T08:36:43.450Z,14.23
2022-11-28T08:39:26.775Z,13.85
2022-11-28T08:41:57.268Z,14.00
2022-11-28T08:44:24.403Z,15.45
2022-11-28T08:46:51.326Z,14.80
2022-11-28T08:49:18.129Z,15.65
2022-11-28T08:51:45.061Z,15.45
2022-11-28T08:54:12.048Z,15.48
2022-11-28T08:56:38.691Z,14.85
2022-11-28T08:59:07.007Z,15.35
2022-11-28T09:01:34.545Z,15.50
2022-11-28T09:04:01.395Z,16.05
2022-11-28T09:06:28.249Z,16.58
2022-11-28T09:08:54.940Z,15.93
2022-11-28T09:11:23.017Z,16.42
2022-11-28T09:13:49.891Z,17.17
2022-11-28T09:16:16.788Z,17.45
2022-11-28T09:18:43.598Z,16.85
2022-11-28T09:21:12.921Z,17.33
2022-11-28T09:23:41.215Z,17.77
2022-11-28T09:26:13.613Z,17.75
2022-11-28T09:28:40.708Z,18.13
2022-11-28T09:31:07.978Z,19.23
2022-11-28T09:33:35.868Z,18.25
2022-11-28T09:36:11.411Z,19.70
2022-11-28T09:38:38.524Z,18.48
2022-11-28T09:41:31.063Z,19.40
2022-11-28T09:44:36.236Z,19.75
2022-11-28T09:47:12.235Z,19.85
2022-11-28T09:50:20.857Z,19.63
2022-11-28T09:52:48.386Z,20.38
2022-11-28T09:55:40.995Z,18.95
2022-11-28T09:58:28.819Z,20.20
2022-11-28T10:01:05.570Z,20.13
2022-11-28T10:03:48.628Z,19.80
2022-11-28T10:06:26.084Z,19.60
2022-11-28T10:09:01.625Z,19.73
2022-11-28T10:11:34.368Z,19.55
2022-11-28T10:14:35.047Z,19.67
2022-11-28T10:17:13.322Z,20.63
2022-11-28T10:19:56.653Z,20.83
2022-11-28T10:22:43.328Z,19.20
2022-11-28T10:25:21.320Z,19.73
2022-11-28T10:27:50.567Z,19.63
2022-11-28T10:30:26.358Z,19.53
2022-11-28T10:33:12.555Z,19.50
2022-11-28T10:35:52.149Z,18.25
2022-11-28T10:38:25.610Z,18.77
2022-11-28T10:41:04.352Z,17.92
2022-11-28T10:43:55.550Z,17.33
2022-11-28T10:46:57.105Z,17.60
2022-11-28T10:49:53.780Z,17.50
2022-11-28T10:52:30.557Z,17.75
2022-11-28T10:55:13.738Z,17.30
2022-11-28T10:58:05.331Z,16.83
2022-11-28T11:00:34.205Z,16.23
2022-11-28T11:03:03.334Z,17.05
2022-11-28T11:05:33.653Z,17.67
2022-11-28T11:08:10.798Z,16.23
2022-11-28T11:11:12.924Z,16.40
2022-11-28T11:14:03.063Z,16.10
2022-11-28T11:19:42.863Z,15.45
2022-11-28T11:22:12.667Z,15.80
2022-11-28T11:24:39.448Z,16.23
2022-11-28T11:27:19.489Z,15.98
2022-11-28T11:32:22.060Z,15.30
2022-11-28T11:34:49.887Z,15.85
2022-11-28T11:37:38.120Z,15.10
2022-11-28T11:40:25.916Z,15.13
2022-11-28T11:42:58.471Z,14.82
2022-11-28T11:45:34.468Z,15.18
2022-11-28T11:48:02.606Z,15.68
2022-11-28T11:50:31.491Z,14.85
2022-11-28T11:53:10.584Z,15.95
2022-11-28T11:55:48.059Z,15.48
2022-11-28T11:58:43.737Z,16.80
2022-11-28T12:01:13.560Z,16.73
2022-11-28T12:03:55.157Z,16.92
2022-11-28T12:06:50.350Z,14.98
2022-11-28T12:09:22.769Z,16.23
2022-11-28T12:11:55.796Z,15.60
2022-11-28T12:14:30.596Z,16.10
2022-11-28T12:17:25.674Z,16.98
2022-11-28T12:20:39.534Z,16.92
2022-11-28T12:23:25.434Z,16.77
2022-11-28T12:26:21.102Z,16.55
2022-11-28T12:29:28.613Z,16.90
2022-11-28T12:32:18.172Z,16.20
2022-11-28T12:34:53.841Z,15.98
2022-11-28T12:41:09.360Z,15.20
2022-11-28T12:43:53.856Z,13.75
2022-11-28T12:46:32.031Z,12.57
2022-11-28T12:49:14.437Z,13.43
2022-11-28T12:51:52.345Z,14.88
2022-11-28T12:54:41.560Z,16.95
2022-11-28T12:57:12.927Z,16.80
2022-11-28T13:00:08.136Z,15.80
2022-11-28T13:03:01.282Z,16.73
2022-11-28T13:05:46.932Z,18.38
2022-11-28T13:08:33.799Z,17.10
2022-11-28T13:11:03.187Z,17.38
2022-11-28T13:13:41.411Z,17.10
2022-11-28T13:16:38.467Z,16.65
2022-11-28T13:19:20.337Z,18.08
2022-11-28T13:22:10.404Z,17.95
2022-11-28T13:27:33.146Z,16.65
2022-11-28T13:30:13.379Z,18.23
2022-11-28T13:33:06.656Z,17.55
2022-11-28T13:35:35.077Z,18.02
2022-11-28T13:42:00.863Z,19.02
2022-11-28T13:44:29.329Z,16.30
2022-11-28T13:46:56.767Z,17.30
2022-11-28T13:49:27.798Z,17.88
2022-11-28T13:52:19.461Z,17.45
2022-11-28T13:54:53.873Z,18.70
2022-11-28T13:57:39.801Z,17.45
2022-11-28T14:00:22.911Z,17.13
2022-11-28T14:03:00.693Z,18.77
2022-11-28T14:05:38.144Z,16.52
2022-11-28T14:08:07.197Z,16.65
2022-11-28T14:10:58.909Z,18.15
2022-11-28T14:13:31.860Z,17.55
2022-11-28T14:16:25.776Z,18.13
2022-11-28T14:19:03.637Z,17.40
2022-11-28T14:21:59.717Z,17.50
2022-11-28T14:24:38.462Z,17.50
2022-11-28T14:27:06.613Z,18.70
2022-11-28T14:29:41.434Z,17.13
2022-11-28T14:32:30.664Z,18.85
2022-11-28T14:35:00.382Z,18.60
2022-11-28T14:37:28.717Z,18.55
2022-11-28T14:39:57.497Z,18.50
2022-11-28T14:45:46.269Z,20.75
2022-11-28T14:48:23.767Z,20.33
2022-11-28T14:51:00.570Z,19.27
2022-11-28T14:53:34.725Z,19.55
2022-11-28T14:56:31.050Z,18.25
2022-11-28T14:59:01.714Z,18.17
2022-11-28T15:01:38.374Z,19.52
2022-11-28T15:04:16.056Z,19.50
2022-11-28T15:06:43.759Z,18.85
2022-11-28T15:09:29.324Z,20.13
2022-11-28T15:12:17.800Z,19.33
2022-11-28T15:14:51.808Z,20.20
2022-11-28T15:17:23.101Z,20.48
2022-11-28T15:19:50.053Z,21.05
2022-11-28T15:22:46.951Z,22.75
2022-11-28T15:25:37.164Z,19.98
2022-11-28T15:30:48.074Z,19.35
2022-11-28T15:33:15.007Z,20.92
2022-11-28T15:35:59.778Z,21.58
2022-11-28T15:38:28.551Z,21.35
2022-11-28T15:40:56.603Z,22.33
2022-11-28T15:43:24.825Z,22.60
2022-11-28T15:46:00.129Z,21.20
2022-11-28T15:48:40.372Z,22.10
2022-11-28T15:51:08.635Z,22.67
2022-11-28T15:53:40.990Z,22.55
2022-11-28T15:56:12.204Z,23.50
2022-11-28T15:58:40.526Z,22.58
2022-11-28T16:01:18.139Z,23.65
2022-11-28T16:03:51.217Z,24.27
2022-11-28T16:06:19.356Z,24.42
2022-11-28T16:08:52.247Z,23.02
2022-11-28T16:11:22.398Z,23.25
2022-11-28T16:13:50.329Z,24.05
2022-11-28T16:16:25.236Z,23.80
2022-11-28T16:19:04.397Z,22.77
2022-11-28T16:21:57.788Z,23.75
2022-11-28T16:24:40.461Z,21.75
2022-11-28T16:27:07.132Z,22.80
2022-11-28T16:29:36.076Z,22.90
2022-11-28T16:32:19.604Z,21.20
2022-11-28T16:34:49.092Z,21.52
2022-11-28T16:37:27.529Z,22.65
2022-11-28T16:40:01.299Z,21.98
2022-11-28T16:42:28.435Z,22.52
2022-11-28T16:44:55.222Z,22.63
2022-11-28T16:47:30.608Z,22.15
2022-11-28T16:50:15.418Z,22.08
2022-11-28T16:53:29.119Z,23.55
2022-11-28T16:55:55.892Z,22.55
2022-11-28T16:58:23.361Z,22.48
2022-11-28T17:01:00.071Z,22.83
2022-11-28T17:03:44.468Z,22.15
2022-11-28T17:06:28.592Z,28.33
2022-11-28T17:08:58.493Z,24.73
2022-11-28T17:11:29.521Z,23.10
2022-11-28T17:13:57.841Z,22.88
2022-11-28T17:16:26.645Z,22.20
2022-11-28T17:18:53.603Z,23.23
2022-11-28T17:21:42.033Z,23.27
2022-11-28T17:24:24.248Z,25.25
2022-11-28T17:26:52.780Z,22.20
2022-11-28T17:29:21.509Z,22.55
2022-11-28T17:31:48.901Z,21.08
2022-11-28T17:34:27.375Z,21.30
2022-11-28T17:36:54.086Z,22.13
2022-11-28T17:39:21.012Z,22.80
2022-11-28T17:41:48.733Z,21.98
2022-11-28T17:44:21.760Z,20.95
2022-11-28T17:46:50.630Z,21.35
2022-11-28T17:49:19.119Z,20.65
2022-11-28T17:51:46.170Z,20.05
2022-11-28T17:54:17.835Z,20.35
2022-11-28T17:56:45.763Z,20.25
2022-11-28T17:59:14.052Z,18.95
2022-11-28T18:01:41.356Z,19.83
2022-11-28T18:04:08.079Z,18.83
2022-11-28T18:06:35.143Z,18.48
2022-11-28T18:09:10.142Z,21.23
2022-11-28T18:11:39.439Z,19.92
2022-11-28T18:14:06.257Z,19.88
2022-11-28T18:16:35.593Z,19.40
2022-11-28T18:19:03.024Z,17.55
2022-11-28T18:21:29.783Z,18.33
2022-11-28T18:23:56.586Z,18.13
2022-11-28T18:26:25.998Z,18.15
2022-11-28T18:28:53.725Z,18.73
2022-11-28T18:31:23.993Z,17.02
2022-11-28T18:33:51.485Z,17.02
2022-11-28T18:36:23.147Z,17.60
2022-11-28T18:38:54.154Z,17.85
2022-11-28T18:41:20.924Z,17.08
2022-11-28T18:43:48.183Z,18.05
2022-11-28T18:46:20.840Z,17.00
2022-11-28T18:48:48.415Z,17.60
2022-11-28T18:51:21.699Z,16.52
2022-11-28T18:53:50.300Z,17.73
2022-11-28T18:56:18.044Z,18.63
2022-11-28T18:58:47.954Z,17.98
2022-11-28T19:01:17.610Z,16.52
2022-11-28T19:03:49.556Z,16.95
2022-11-28T19:06:18.254Z,17.23
2022-11-28T19:08:44.960Z,16.73
2022-11-28T19:11:15.069Z,16.73
2022-11-28T19:13:44.171Z,16.25
2022-11-28T19:16:16.560Z,17.03
2022-11-28T19:18:44.465Z,16.73
2022-11-28T19:21:14.055Z,16.95
2022-11-28T19:23:41.239Z,16.75
2022-11-28T19:26:13.889Z,17.33
2022-11-28T19:28:41.748Z,17.83
2022-11-28T19:31:09.518Z,17.58
2022-11-28T19:33:36.319Z,17.38
2022-11-28T19:36:08.385Z,16.80
2022-11-28T19:38:36.402Z,16.42
2022-11-28T19:41:07.414Z,17.35
2022-11-28T19:43:35.076Z,15.98
2022-11-28T19:46:03.043Z,17.73
2022-11-28T19:48:32.385Z,17.73
2022-11-28T19:50:59.973Z,17.85
2022-11-28T19:53:28.822Z,17.08
2022-11-28T19:55:56.357Z,17.42
2022-11-28T19:58:23.397Z,18.58
2022-11-28T20:00:50.639Z,17.35
2022-11-28T20:03:17.383Z,16.83
2022-11-28T20:05:44.208Z,16.95
2022-11-28T20:08:11.039Z,17.95
2022-11-28T20:10:39.444Z,19.25
2022-11-28T20:13:07.208Z,19.25
2022-11-28T20:15:37.376Z,17.88
2022-11-28T20:18:04.783Z,17.65
2022-11-28T20:20:33.860Z,18.38
2022-11-28T20:23:01.553Z,18.17
2022-11-28T20:25:28.358Z,18.25
2022-11-28T20:27:55.196Z,16.45
2022-11-28T20:30:22.769Z,17.95
2022-11-28T20:32:49.796Z,17.45
2022-11-28T20:35:17.932Z,18.98
2022-11-28T20:37:44.618Z,17.83
2022-11-28T20:40:11.788Z,16.60
2022-11-28T20:42:40.118Z,18.85
2022-11-28T20:45:07.611Z,17.70
2022-11-28T20:47:34.962Z,17.70
2022-11-28T20:50:01.804Z,17.45
2022-11-28T20:52:28.522Z,18.42
2022-11-28T20:54:55.345Z,17.63
2022-11-28T20:57:22.623Z,16.02
2022-11-28T20:59:49.589Z,16.65
2022-11-28T21:02:16.394Z,17.45
2022-11-28T21:04:43.080Z,17.70
2022-11-28T21:07:09.845Z,17.45
2022-11-28T21:09:36.599Z,16.30
2022-11-28T21:12:03.298Z,17.55
2022-11-28T21:14:30.059Z,18.25
2022-11-28T21:16:58.080Z,18.08
2022-11-28T21:19:25.137Z,17.85
2022-11-28T21:21:51.851Z,17.90
2022-11-28T21:24:18.524Z,21.88
2022-11-28T21:26:49.756Z,21.80
2022-11-28T21:29:20.127Z,19.50
2022-11-28T21:31:47.210Z,20.95
2022-11-28T21:34:15.522Z,19.48
2022-11-28T21:36:42.688Z,19.30
2022-11-28T21:39:14.776Z,20.17
2022-11-28T21:41:41.738Z,21.85
2022-11-28T21:44:09.074Z,19.50
2022-11-28T21:46:35.907Z,20.33
2022-11-28T21:49:02.729Z,19.98
2022-11-28T21:51:29.494Z,19.60
2022-11-28T21:53:57.569Z,21.40
2022-11-28T21:56:25.383Z,20.40
2022-11-28T21:58:53.485Z,20.42
2022-11-28T22:01:21.342Z,20.80
2022-11-28T22:03:49.322Z,19.52
2022-11-28T22:06:21.405Z,20.35
2022-11-28T22:08:49.254Z,17.92
2022-11-28T22:11:16.511Z,18.92
2022-11-28T22:13:47.535Z,19.38
2022-11-28T22:16:17.219Z,20.42
2022-11-28T22:21:43.206Z,18.80
2022-11-28T22:23:58.779Z,19.45
2022-11-28T22:26:26.065Z,19.83
2022-11-28T22:28:53.729Z,21.48
2022-11-28T22:31:23.190Z,20.55
2022-11-28T22:33:50.644Z,20.75
2022-11-28T22:36:19.467Z,20.80
2022-11-28T22:38:47.799Z,21.43
2022-11-28T22:41:24.866Z,21.65
2022-11-28T22:43:57.589Z,20.30
2022-11-28T22:46:24.503Z,20.98
2022-11-28T22:48:52.041Z,22.25
2022-11-28T22:51:21.483Z,21.75
2022-11-28T22:53:48.320Z,22.10
2022-11-28T22:56:15.877Z,21.45
2022-11-28T22:58:44.782Z,21.58
2022-11-28T23:01:18.898Z,22.23
2022-11-28T23:03:46.772Z,22.15
2022-11-28T23:06:19.717Z,23.08
2022-11-28T23:08:48.689Z,21.73
2022-11-28T23:11:18.014Z,21.60
2022-11-28T23:13:48.307Z,21.30
2022-11-28T23:16:28.868Z,21.48
2022-11-28T23:18:59.146Z,23.55
2022-11-28T23:21:28.863Z,21.42
2022-11-28T23:23:55.461Z,22.38
2022-11-28T23:26:24.651Z,21.10
2022-11-28T23:28:53.116Z,20.65
2022-11-28T23:31:26.204Z,21.77
2022-11-28T23:33:54.871Z,20.25
2022-11-28T23:36:21.729Z,21.42
2022-11-28T23:38:51.471Z,21.83
2022-11-28T23:41:18.847Z,22.63
2022-11-28T23:43:46.087Z,22.48
2022-11-28T23:46:14.130Z,22.20
2022-11-28T23:48:42.579Z,21.42
2022-11-28T23:51:10.121Z,21.13
2022-11-28T23:53:36.930Z,23.02
2022-11-28T23:56:24.841Z,22.23
2022-11-28T23:58:52.639Z,23.63
